sensor_id;sensor_type;location;lat;lon;timestamp;temperature;humidity
59309;DHT22;48433;53.016;-2.260;2022-09-09T00:03:54;13.40;99.90
59309;DHT22;48433;53.016;-2.260;2022-09-09T00:07:21;13.50;99.90
59309;DHT22;48433;53.016;-2.260;2022-09-09T00:10:09;13.50;99.90
59309;DHT22;48433;53.016;-2.260;2022-09-09T00:13:01;13.50;99.90
59309;DHT22;48433;53.016;-2.260;2022-09-09T00:15:47;13.50;99.90
59309;DHT22;48433;53.016;-2.260;2022-09-09T00:20:57;13.50;99.90
59309;DHT22;48433;53.016;-2.260;2022-09-09T00:23:29;13.40;99.90
59309;DHT22;48433;53.016;-2.260;2022-09-09T00:26:22;13.40;99.90
59309;DHT22;48433;53.016;-2.260;2022-09-09T00:31:37;13.50;99.90
59309;DHT22;48433;53.016;-2.260;2022-09-09T00:36:41;13.60;99.90
59309;DHT22;48433;53.016;-2.260;2022-09-09T00:42:17;13.70;99.90
59309;DHT22;48433;53.016;-2.260;2022-09-09T00:47:32;13.50;99.90
59309;DHT22;48433;53.016;-2.260;2022-09-09T00:55:39;13.60;99.90
59309;DHT22;48433;53.016;-2.260;2022-09-09T00:58:09;13.60;99.90
59309;DHT22;48433;53.016;-2.260;2022-09-09T01:00:42;13.70;99.90
59309;DHT22;48433;53.016;-2.260;2022-09-09T01:03:36;13.70;99.90
59309;DHT22;48433;53.016;-2.260;2022-09-09T01:09:22;13.60;99.90
59309;DHT22;48433;53.016;-2.260;2022-09-09T01:15:10;13.70;99.90
59309;DHT22;48433;53.016;-2.260;2022-09-09T01:23:32;13.90;99.90
59309;DHT22;48433;53.016;-2.260;2022-09-09T01:26:24;13.90;99.90
59309;DHT22;48433;53.016;-2.260;2022-09-09T01:28:56;13.90;99.90
59309;DHT22;48433;53.016;-2.260;2022-09-09T01:31:58;13.90;99.90
59309;DHT22;48433;53.016;-2.260;2022-09-09T01:34:38;14.00;99.90
59309;DHT22;48433;53.016;-2.260;2022-09-09T01:37:11;14.00;99.90
59309;DHT22;48433;53.016;-2.260;2022-09-09T01:39:43;14.00;99.90
59309;DHT22;48433;53.016;-2.260;2022-09-09T01:42:16;14.00;99.90
59309;DHT22;48433;53.016;-2.260;2022-09-09T01:44:45;14.10;99.90
59309;DHT22;48433;53.016;-2.260;2022-09-09T01:47:14;14.10;99.90
59309;DHT22;48433;53.016;-2.260;2022-09-09T01:50:13;14.20;99.90
59309;DHT22;48433;53.016;-2.260;2022-09-09T01:52:44;14.20;99.90
59309;DHT22;48433;53.016;-2.260;2022-09-09T01:55:15;14.30;99.90
59309;DHT22;48433;53.016;-2.260;2022-09-09T02:00:56;14.30;99.90
59309;DHT22;48433;53.016;-2.260;2022-09-09T02:03:28;14.40;99.90
59309;DHT22;48433;53.016;-2.260;2022-09-09T02:06:35;14.40;99.90
59309;DHT22;48433;53.016;-2.260;2022-09-09T02:09:18;14.50;99.90
59309;DHT22;48433;53.016;-2.260;2022-09-09T02:11:47;14.50;99.90
59309;DHT22;48433;53.016;-2.260;2022-09-09T02:14:30;14.60;99.90
59309;DHT22;48433;53.016;-2.260;2022-09-09T02:17:09;14.70;99.90
59309;DHT22;48433;53.016;-2.260;2022-09-09T02:20:05;14.70;99.90
59309;DHT22;48433;53.016;-2.260;2022-09-09T02:22:49;14.70;99.90
59309;DHT22;48433;53.016;-2.260;2022-09-09T02:25:21;14.70;99.90
59309;DHT22;48433;53.016;-2.260;2022-09-09T02:27:51;14.80;99.90
59309;DHT22;48433;53.016;-2.260;2022-09-09T02:30:20;14.70;99.90
59309;DHT22;48433;53.016;-2.260;2022-09-09T02:32:58;14.70;99.90
59309;DHT22;48433;53.016;-2.260;2022-09-09T02:35:42;14.70;99.90
59309;DHT22;48433;53.016;-2.260;2022-09-09T02:38:14;14.80;99.90
59309;DHT22;48433;53.016;-2.260;2022-09-09T02:40:54;14.80;99.90
59309;DHT22;48433;53.016;-2.260;2022-09-09T02:43:23;14.80;99.90
59309;DHT22;48433;53.016;-2.260;2022-09-09T02:46:17;14.90;99.90
59309;DHT22;48433;53.016;-2.260;2022-09-09T02:49:03;14.90;99.90
59309;DHT22;48433;53.016;-2.260;2022-09-09T02:52:06;14.90;99.90
59309;DHT22;48433;53.016;-2.260;2022-09-09T02:54:40;15.00;99.90
59309;DHT22;48433;53.016;-2.260;2022-09-09T02:57:14;15.00;99.90
59309;DHT22;48433;53.016;-2.260;2022-09-09T02:59:47;15.00;99.90
59309;DHT22;48433;53.016;-2.260;2022-09-09T03:02:15;15.00;99.90
59309;DHT22;48433;53.016;-2.260;2022-09-09T03:04:46;15.10;99.90
59309;DHT22;48433;53.016;-2.260;2022-09-09T03:07:21;15.10;99.90
59309;DHT22;48433;53.016;-2.260;2022-09-09T03:09:50;15.10;99.90
59309;DHT22;48433;53.016;-2.260;2022-09-09T03:12:18;15.10;99.90
59309;DHT22;48433;53.016;-2.260;2022-09-09T03:14:45;15.20;99.90
59309;DHT22;48433;53.016;-2.260;2022-09-09T03:17:14;15.20;99.90
59309;DHT22;48433;53.016;-2.260;2022-09-09T03:19:49;15.20;99.90
59309;DHT22;48433;53.016;-2.260;2022-09-09T03:22:17;15.20;99.90
59309;DHT22;48433;53.016;-2.260;2022-09-09T03:24:46;15.20;99.90
59309;DHT22;48433;53.016;-2.260;2022-09-09T03:27:14;15.20;99.90
59309;DHT22;48433;53.016;-2.260;2022-09-09T03:29:43;15.20;99.90
59309;DHT22;48433;53.016;-2.260;2022-09-09T03:32:15;15.20;99.90
59309;DHT22;48433;53.016;-2.260;2022-09-09T03:34:45;15.10;99.90
59309;DHT22;48433;53.016;-2.260;2022-09-09T03:37:16;15.10;99.90
59309;DHT22;48433;53.016;-2.260;2022-09-09T03:39:45;15.10;99.90
59309;DHT22;48433;53.016;-2.260;2022-09-09T03:42:15;15.10;99.90
59309;DHT22;48433;53.016;-2.260;2022-09-09T03:44:49;15.10;99.90
59309;DHT22;48433;53.016;-2.260;2022-09-09T03:47:23;15.10;99.90
59309;DHT22;48433;53.016;-2.260;2022-09-09T03:49:55;15.20;99.90
59309;DHT22;48433;53.016;-2.260;2022-09-09T03:52:23;15.10;99.90
59309;DHT22;48433;53.016;-2.260;2022-09-09T03:54:53;15.20;99.90
59309;DHT22;48433;53.016;-2.260;2022-09-09T03:57:21;15.10;99.90
59309;DHT22;48433;53.016;-2.260;2022-09-09T03:59:49;15.20;99.90
59309;DHT22;48433;53.016;-2.260;2022-09-09T04:02:17;15.10;99.90
59309;DHT22;48433;53.016;-2.260;2022-09-09T04:04:45;15.10;99.90
59309;DHT22;48433;53.016;-2.260;2022-09-09T04:07:13;15.10;99.90
59309;DHT22;48433;53.016;-2.260;2022-09-09T04:09:41;15.10;99.90
59309;DHT22;48433;53.016;-2.260;2022-09-09T04:12:08;15.00;99.90
59309;DHT22;48433;53.016;-2.260;2022-09-09T04:14:40;15.00;99.90
59309;DHT22;48433;53.016;-2.260;2022-09-09T04:17:08;15.00;99.90
59309;DHT22;48433;53.016;-2.260;2022-09-09T04:19:37;15.00;99.90
59309;DHT22;48433;53.016;-2.260;2022-09-09T04:22:04;15.00;99.90
59309;DHT22;48433;53.016;-2.260;2022-09-09T04:24:33;15.00;99.90
59309;DHT22;48433;53.016;-2.260;2022-09-09T04:27:01;15.00;99.90
59309;DHT22;48433;53.016;-2.260;2022-09-09T04:29:30;15.00;99.90
59309;DHT22;48433;53.016;-2.260;2022-09-09T04:31:58;15.00;99.90
59309;DHT22;48433;53.016;-2.260;2022-09-09T04:34:26;15.00;99.90
59309;DHT22;48433;53.016;-2.260;2022-09-09T04:36:54;15.00;99.90
59309;DHT22;48433;53.016;-2.260;2022-09-09T04:39:23;15.00;99.90
59309;DHT22;48433;53.016;-2.260;2022-09-09T04:41:51;15.00;99.90
59309;DHT22;48433;53.016;-2.260;2022-09-09T04:44:18;15.00;99.90
59309;DHT22;48433;53.016;-2.260;2022-09-09T04:46:47;14.90;99.90
59309;DHT22;48433;53.016;-2.260;2022-09-09T04:49:15;14.90;99.90
59309;DHT22;48433;53.016;-2.260;2022-09-09T04:51:43;14.90;99.90
59309;DHT22;48433;53.016;-2.260;2022-09-09T04:54:11;14.90;99.90
59309;DHT22;48433;53.016;-2.260;2022-09-09T04:56:43;14.90;99.90
59309;DHT22;48433;53.016;-2.260;2022-09-09T04:59:11;14.90;99.90
59309;DHT22;48433;53.016;-2.260;2022-09-09T05:01:45;14.90;99.90
59309;DHT22;48433;53.016;-2.260;2022-09-09T05:04:13;14.90;99.90
59309;DHT22;48433;53.016;-2.260;2022-09-09T05:06:43;14.90;99.90
59309;DHT22;48433;53.016;-2.260;2022-09-09T05:09:12;14.90;99.90
59309;DHT22;48433;53.016;-2.260;2022-09-09T05:11:40;14.90;99.90
59309;DHT22;48433;53.016;-2.260;2022-09-09T05:14:24;14.90;99.90
59309;DHT22;48433;53.016;-2.260;2022-09-09T05:16:52;14.90;99.90
59309;DHT22;48433;53.016;-2.260;2022-09-09T05:19:20;14.90;99.90
59309;DHT22;48433;53.016;-2.260;2022-09-09T05:21:49;15.00;99.90
59309;DHT22;48433;53.016;-2.260;2022-09-09T05:24:21;14.90;99.90
59309;DHT22;48433;53.016;-2.260;2022-09-09T05:26:53;14.90;99.90
59309;DHT22;48433;53.016;-2.260;2022-09-09T05:29:20;14.90;99.90
59309;DHT22;48433;53.016;-2.260;2022-09-09T05:31:49;14.90;99.90
59309;DHT22;48433;53.016;-2.260;2022-09-09T05:34:20;14.90;99.90
59309;DHT22;48433;53.016;-2.260;2022-09-09T05:36:49;14.90;99.90
59309;DHT22;48433;53.016;-2.260;2022-09-09T05:39:17;14.90;99.90
59309;DHT22;48433;53.016;-2.260;2022-09-09T05:41:45;14.90;99.90
59309;DHT22;48433;53.016;-2.260;2022-09-09T05:44:13;14.90;99.90
59309;DHT22;48433;53.016;-2.260;2022-09-09T05:46:41;14.90;99.90
59309;DHT22;48433;53.016;-2.260;2022-09-09T05:49:08;14.90;99.90
59309;DHT22;48433;53.016;-2.260;2022-09-09T05:51:36;14.90;99.90
59309;DHT22;48433;53.016;-2.260;2022-09-09T05:54:09;14.90;99.90
59309;DHT22;48433;53.016;-2.260;2022-09-09T05:56:42;14.90;99.90
59309;DHT22;48433;53.016;-2.260;2022-09-09T05:59:10;14.90;99.90
59309;DHT22;48433;53.016;-2.260;2022-09-09T06:01:39;14.90;99.90
59309;DHT22;48433;53.016;-2.260;2022-09-09T06:04:18;14.90;99.90
59309;DHT22;48433;53.016;-2.260;2022-09-09T06:06:48;14.90;99.90
59309;DHT22;48433;53.016;-2.260;2022-09-09T06:09:18;14.90;99.90
59309;DHT22;48433;53.016;-2.260;2022-09-09T06:11:46;14.90;99.90
59309;DHT22;48433;53.016;-2.260;2022-09-09T06:14:14;14.90;99.90
59309;DHT22;48433;53.016;-2.260;2022-09-09T06:16:45;14.90;99.90
59309;DHT22;48433;53.016;-2.260;2022-09-09T06:19:18;14.90;99.90
59309;DHT22;48433;53.016;-2.260;2022-09-09T06:21:48;15.00;99.90
59309;DHT22;48433;53.016;-2.260;2022-09-09T06:24:17;15.00;99.90
59309;DHT22;48433;53.016;-2.260;2022-09-09T06:26:46;15.00;99.90
59309;DHT22;48433;53.016;-2.260;2022-09-09T06:29:24;15.10;99.90
59309;DHT22;48433;53.016;-2.260;2022-09-09T06:31:52;15.10;99.90
59309;DHT22;48433;53.016;-2.260;2022-09-09T06:34:22;15.20;99.90
59309;DHT22;48433;53.016;-2.260;2022-09-09T06:36:54;15.20;99.90
59309;DHT22;48433;53.016;-2.260;2022-09-09T06:39:25;15.20;99.90
59309;DHT22;48433;53.016;-2.260;2022-09-09T06:41:53;15.30;99.90
59309;DHT22;48433;53.016;-2.260;2022-09-09T06:44:40;15.30;99.90
59309;DHT22;48433;53.016;-2.260;2022-09-09T06:47:12;15.40;99.90
59309;DHT22;48433;53.016;-2.260;2022-09-09T06:49:42;15.50;99.90
59309;DHT22;48433;53.016;-2.260;2022-09-09T06:52:14;15.50;99.90
59309;DHT22;48433;53.016;-2.260;2022-09-09T06:54:43;15.60;99.90
59309;DHT22;48433;53.016;-2.260;2022-09-09T06:57:14;15.70;99.90
59309;DHT22;48433;53.016;-2.260;2022-09-09T07:00:03;15.80;99.90
59309;DHT22;48433;53.016;-2.260;2022-09-09T07:02:31;15.90;99.90
59309;DHT22;48433;53.016;-2.260;2022-09-09T07:04:58;15.80;99.90
59309;DHT22;48433;53.016;-2.260;2022-09-09T07:07:26;15.90;99.90
59309;DHT22;48433;53.016;-2.260;2022-09-09T07:09:55;16.00;99.90
59309;DHT22;48433;53.016;-2.260;2022-09-09T07:12:23;16.00;99.90
59309;DHT22;48433;53.016;-2.260;2022-09-09T07:14:56;16.10;99.90
59309;DHT22;48433;53.016;-2.260;2022-09-09T07:17:24;16.20;99.90
59309;DHT22;48433;53.016;-2.260;2022-09-09T07:19:51;16.20;99.90
59309;DHT22;48433;53.016;-2.260;2022-09-09T07:22:21;16.30;99.90
59309;DHT22;48433;53.016;-2.260;2022-09-09T07:24:48;16.40;99.90
59309;DHT22;48433;53.016;-2.260;2022-09-09T07:27:17;16.40;99.90
59309;DHT22;48433;53.016;-2.260;2022-09-09T07:29:44;16.40;99.90
59309;DHT22;48433;53.016;-2.260;2022-09-09T07:32:13;16.50;99.90
59309;DHT22;48433;53.016;-2.260;2022-09-09T07:34:41;16.50;99.90
59309;DHT22;48433;53.016;-2.260;2022-09-09T07:37:08;16.60;99.90
59309;DHT22;48433;53.016;-2.260;2022-09-09T07:39:40;16.60;99.90
59309;DHT22;48433;53.016;-2.260;2022-09-09T07:42:08;16.70;99.90
59309;DHT22;48433;53.016;-2.260;2022-09-09T07:44:39;16.80;99.90
59309;DHT22;48433;53.016;-2.260;2022-09-09T07:47:13;16.80;99.90
59309;DHT22;48433;53.016;-2.260;2022-09-09T07:49:46;17.00;99.90
59309;DHT22;48433;53.016;-2.260;2022-09-09T07:52:18;17.10;99.90
59309;DHT22;48433;53.016;-2.260;2022-09-09T07:54:52;17.10;99.90
59309;DHT22;48433;53.016;-2.260;2022-09-09T07:57:20;17.20;99.90
59309;DHT22;48433;53.016;-2.260;2022-09-09T07:59:49;17.20;99.90
59309;DHT22;48433;53.016;-2.260;2022-09-09T08:02:18;17.20;99.90
59309;DHT22;48433;53.016;-2.260;2022-09-09T08:04:45;17.20;99.90
59309;DHT22;48433;53.016;-2.260;2022-09-09T08:07:15;17.20;99.90
59309;DHT22;48433;53.016;-2.260;2022-09-09T08:09:50;17.20;99.90
59309;DHT22;48433;53.016;-2.260;2022-09-09T08:12:23;17.20;99.90
59309;DHT22;48433;53.016;-2.260;2022-09-09T08:14:51;17.20;99.90
59309;DHT22;48433;53.016;-2.260;2022-09-09T08:17:23;17.30;99.90
59309;DHT22;48433;53.016;-2.260;2022-09-09T08:19:51;17.30;99.90
59309;DHT22;48433;53.016;-2.260;2022-09-09T08:22:23;17.40;99.90
59309;DHT22;48433;53.016;-2.260;2022-09-09T08:24:51;17.50;99.90
59309;DHT22;48433;53.016;-2.260;2022-09-09T08:27:19;17.70;99.90
59309;DHT22;48433;53.016;-2.260;2022-09-09T08:29:48;17.80;99.90
59309;DHT22;48433;53.016;-2.260;2022-09-09T08:32:16;17.90;99.90
59309;DHT22;48433;53.016;-2.260;2022-09-09T08:34:45;18.00;99.90
59309;DHT22;48433;53.016;-2.260;2022-09-09T08:37:18;18.10;99.90
59309;DHT22;48433;53.016;-2.260;2022-09-09T08:39:47;18.20;99.90
59309;DHT22;48433;53.016;-2.260;2022-09-09T08:42:35;18.30;99.90
59309;DHT22;48433;53.016;-2.260;2022-09-09T08:45:14;18.40;99.90
59309;DHT22;48433;53.016;-2.260;2022-09-09T08:48:06;18.50;99.90
59309;DHT22;48433;53.016;-2.260;2022-09-09T08:50:37;18.50;99.90
59309;DHT22;48433;53.016;-2.260;2022-09-09T08:53:27;18.60;99.90
59309;DHT22;48433;53.016;-2.260;2022-09-09T08:56:00;18.60;99.90
59309;DHT22;48433;53.016;-2.260;2022-09-09T08:58:48;18.60;99.90
59309;DHT22;48433;53.016;-2.260;2022-09-09T09:07:08;18.80;99.90
59309;DHT22;48433;53.016;-2.260;2022-09-09T09:10:00;18.80;99.90
59309;DHT22;48433;53.016;-2.260;2022-09-09T09:12:39;18.90;99.90
59309;DHT22;48433;53.016;-2.260;2022-09-09T09:15:18;19.00;99.90
59309;DHT22;48433;53.016;-2.260;2022-09-09T09:17:46;19.10;99.90
59309;DHT22;48433;53.016;-2.260;2022-09-09T09:20:20;19.20;99.90
59309;DHT22;48433;53.016;-2.260;2022-09-09T09:22:52;19.20;99.90
59309;DHT22;48433;53.016;-2.260;2022-09-09T09:25:32;19.20;99.90
59309;DHT22;48433;53.016;-2.260;2022-09-09T09:28:16;19.20;99.90
59309;DHT22;48433;53.016;-2.260;2022-09-09T09:30:52;19.30;99.90
59309;DHT22;48433;53.016;-2.260;2022-09-09T09:35:52;19.50;99.90
59309;DHT22;48433;53.016;-2.260;2022-09-09T09:38:24;19.60;99.90
59309;DHT22;48433;53.016;-2.260;2022-09-09T09:41:12;19.60;99.90
59309;DHT22;48433;53.016;-2.260;2022-09-09T09:43:41;19.70;99.90
59309;DHT22;48433;53.016;-2.260;2022-09-09T09:46:22;19.90;99.90
59309;DHT22;48433;53.016;-2.260;2022-09-09T09:49:04;20.20;99.90
59309;DHT22;48433;53.016;-2.260;2022-09-09T09:51:37;20.50;99.90
59309;DHT22;48433;53.016;-2.260;2022-09-09T09:56:42;20.70;99.90
59309;DHT22;48433;53.016;-2.260;2022-09-09T10:04:40;20.70;99.90
59309;DHT22;48433;53.016;-2.260;2022-09-09T10:07:15;20.70;99.90
59309;DHT22;48433;53.016;-2.260;2022-09-09T10:09:44;20.60;99.90
59309;DHT22;48433;53.016;-2.260;2022-09-09T10:18:08;20.20;99.90
59309;DHT22;48433;53.016;-2.260;2022-09-09T10:21:15;20.20;99.90
59309;DHT22;48433;53.016;-2.260;2022-09-09T10:29:38;20.20;99.90
59309;DHT22;48433;53.016;-2.260;2022-09-09T10:32:33;20.20;99.90
59309;DHT22;48433;53.016;-2.260;2022-09-09T10:35:36;20.50;99.90
59309;DHT22;48433;53.016;-2.260;2022-09-09T10:49:42;21.50;99.90
59309;DHT22;48433;53.016;-2.260;2022-09-09T10:55:00;21.40;99.90
59309;DHT22;48433;53.016;-2.260;2022-09-09T11:00:19;21.40;99.90
59309;DHT22;48433;53.016;-2.260;2022-09-09T11:02:56;21.20;99.90
59309;DHT22;48433;53.016;-2.260;2022-09-09T11:05:29;21.10;99.90
59309;DHT22;48433;53.016;-2.260;2022-09-09T11:08:20;21.00;99.90
59309;DHT22;48433;53.016;-2.260;2022-09-09T11:16:58;21.60;99.90
59309;DHT22;48433;53.016;-2.260;2022-09-09T11:19:35;22.10;99.90
59309;DHT22;48433;53.016;-2.260;2022-09-09T11:22:17;22.60;99.90
59309;DHT22;48433;53.016;-2.260;2022-09-09T11:24:51;22.80;99.90
59309;DHT22;48433;53.016;-2.260;2022-09-09T11:33:59;23.70;98.20
59309;DHT22;48433;53.016;-2.260;2022-09-09T11:42:18;25.10;93.90
59309;DHT22;48433;53.016;-2.260;2022-09-09T11:44:46;25.10;93.60
59309;DHT22;48433;53.016;-2.260;2022-09-09T11:47:26;25.10;93.00
59309;DHT22;48433;53.016;-2.260;2022-09-09T11:52:44;25.50;91.10
59309;DHT22;48433;53.016;-2.260;2022-09-09T11:55:33;25.50;91.10
59309;DHT22;48433;53.016;-2.260;2022-09-09T12:00:41;25.50;90.90
59309;DHT22;48433;53.016;-2.260;2022-09-09T12:03:45;25.60;90.10
59309;DHT22;48433;53.016;-2.260;2022-09-09T12:06:29;25.60;89.10
59309;DHT22;48433;53.016;-2.260;2022-09-09T12:11:43;25.20;89.20
59309;DHT22;48433;53.016;-2.260;2022-09-09T12:17:29;25.20;88.70
59309;DHT22;48433;53.016;-2.260;2022-09-09T12:20:30;25.30;87.90
59309;DHT22;48433;53.016;-2.260;2022-09-09T12:26:03;25.40;86.50
59309;DHT22;48433;53.016;-2.260;2022-09-09T12:34:16;27.80;80.20
59309;DHT22;48433;53.016;-2.260;2022-09-09T12:36:51;28.10;76.90
59309;DHT22;48433;53.016;-2.260;2022-09-09T12:39:34;27.60;74.50
59309;DHT22;48433;53.016;-2.260;2022-09-09T12:42:03;27.20;75.00
59309;DHT22;48433;53.016;-2.260;2022-09-09T12:44:31;26.80;76.10
59309;DHT22;48433;53.016;-2.260;2022-09-09T12:47:02;26.80;77.60
59309;DHT22;48433;53.016;-2.260;2022-09-09T12:49:34;26.80;77.70
59309;DHT22;48433;53.016;-2.260;2022-09-09T12:54:44;26.60;78.00
59309;DHT22;48433;53.016;-2.260;2022-09-09T12:57:16;26.40;77.00
59309;DHT22;48433;53.016;-2.260;2022-09-09T12:59:44;26.50;77.40
59309;DHT22;48433;53.016;-2.260;2022-09-09T13:02:19;27.10;75.40
59309;DHT22;48433;53.016;-2.260;2022-09-09T13:04:48;27.70;74.20
59309;DHT22;48433;53.016;-2.260;2022-09-09T13:07:18;28.20;71.40
59309;DHT22;48433;53.016;-2.260;2022-09-09T13:09:47;28.90;70.40
59309;DHT22;48433;53.016;-2.260;2022-09-09T13:12:19;29.60;68.30
59309;DHT22;48433;53.016;-2.260;2022-09-09T13:14:49;29.80;65.10
59309;DHT22;48433;53.016;-2.260;2022-09-09T13:17:24;29.00;69.40
59309;DHT22;48433;53.016;-2.260;2022-09-09T13:19:52;27.60;72.40
59309;DHT22;48433;53.016;-2.260;2022-09-09T13:22:26;26.10;77.90
59309;DHT22;48433;53.016;-2.260;2022-09-09T13:25:51;24.70;83.70
59309;DHT22;48433;53.016;-2.260;2022-09-09T13:30:25;22.20;94.50
59309;DHT22;48433;53.016;-2.260;2022-09-09T13:33:20;21.40;97.10
59309;DHT22;48433;53.016;-2.260;2022-09-09T13:35:55;20.70;99.90
59309;DHT22;48433;53.016;-2.260;2022-09-09T13:38:23;20.20;99.90
59309;DHT22;48433;53.016;-2.260;2022-09-09T13:41:05;19.80;99.90
59309;DHT22;48433;53.016;-2.260;2022-09-09T13:43:41;19.50;99.90
59309;DHT22;48433;53.016;-2.260;2022-09-09T13:49:23;19.10;99.90
59309;DHT22;48433;53.016;-2.260;2022-09-09T13:51:50;18.90;99.90
59309;DHT22;48433;53.016;-2.260;2022-09-09T13:54:20;18.80;99.90
59309;DHT22;48433;53.016;-2.260;2022-09-09T13:56:48;18.70;99.90
59309;DHT22;48433;53.016;-2.260;2022-09-09T13:59:18;18.50;99.90
59309;DHT22;48433;53.016;-2.260;2022-09-09T14:02:08;18.40;99.90
59309;DHT22;48433;53.016;-2.260;2022-09-09T14:04:36;18.30;99.90
59309;DHT22;48433;53.016;-2.260;2022-09-09T14:07:04;18.20;99.90
59309;DHT22;48433;53.016;-2.260;2022-09-09T14:09:31;18.20;99.90
59309;DHT22;48433;53.016;-2.260;2022-09-09T14:11:59;18.10;99.90
59309;DHT22;48433;53.016;-2.260;2022-09-09T14:14:27;18.10;99.90
59309;DHT22;48433;53.016;-2.260;2022-09-09T14:16:55;18.10;99.90
59309;DHT22;48433;53.016;-2.260;2022-09-09T14:19:22;18.20;99.90
59309;DHT22;48433;53.016;-2.260;2022-09-09T14:21:50;18.20;99.90
59309;DHT22;48433;53.016;-2.260;2022-09-09T14:24:17;18.30;99.90
59309;DHT22;48433;53.016;-2.260;2022-09-09T14:26:45;18.40;99.90
59309;DHT22;48433;53.016;-2.260;2022-09-09T14:29:13;18.40;99.90
59309;DHT22;48433;53.016;-2.260;2022-09-09T14:31:40;18.40;99.90
59309;DHT22;48433;53.016;-2.260;2022-09-09T14:34:08;18.50;99.90
59309;DHT22;48433;53.016;-2.260;2022-09-09T14:36:38;18.50;99.90
59309;DHT22;48433;53.016;-2.260;2022-09-09T14:39:05;18.50;99.90
59309;DHT22;48433;53.016;-2.260;2022-09-09T14:41:33;18.50;99.90
59309;DHT22;48433;53.016;-2.260;2022-09-09T14:44:01;18.50;99.90
59309;DHT22;48433;53.016;-2.260;2022-09-09T14:46:28;18.50;99.90
59309;DHT22;48433;53.016;-2.260;2022-09-09T14:48:56;18.60;99.90
59309;DHT22;48433;53.016;-2.260;2022-09-09T14:51:25;18.70;99.90
59309;DHT22;48433;53.016;-2.260;2022-09-09T14:53:57;19.20;99.90
59309;DHT22;48433;53.016;-2.260;2022-09-09T14:56:28;20.20;99.90
59309;DHT22;48433;53.016;-2.260;2022-09-09T14:58:58;21.50;99.90
59309;DHT22;48433;53.016;-2.260;2022-09-09T15:01:26;22.70;99.90
59309;DHT22;48433;53.016;-2.260;2022-09-09T15:03:56;23.30;99.90
59309;DHT22;48433;53.016;-2.260;2022-09-09T15:06:27;23.30;99.90
59309;DHT22;48433;53.016;-2.260;2022-09-09T15:08:56;23.10;99.90
59309;DHT22;48433;53.016;-2.260;2022-09-09T15:11:29;23.00;99.90
59309;DHT22;48433;53.016;-2.260;2022-09-09T15:14:01;23.20;99.90
59309;DHT22;48433;53.016;-2.260;2022-09-09T15:16:29;23.70;99.90
59309;DHT22;48433;53.016;-2.260;2022-09-09T15:18:58;24.10;99.90
59309;DHT22;48433;53.016;-2.260;2022-09-09T15:21:32;24.80;99.90
59309;DHT22;48433;53.016;-2.260;2022-09-09T15:23:59;25.00;99.90
59309;DHT22;48433;53.016;-2.260;2022-09-09T15:26:28;25.20;99.90
59309;DHT22;48433;53.016;-2.260;2022-09-09T15:28:57;25.50;99.50
59309;DHT22;48433;53.016;-2.260;2022-09-09T15:31:29;25.60;98.60
59309;DHT22;48433;53.016;-2.260;2022-09-09T15:33:58;25.40;97.90
59309;DHT22;48433;53.016;-2.260;2022-09-09T15:36:31;25.00;97.90
59309;DHT22;48433;53.016;-2.260;2022-09-09T15:39:04;24.40;98.30
59309;DHT22;48433;53.016;-2.260;2022-09-09T15:41:32;23.90;98.80
59309;DHT22;48433;53.016;-2.260;2022-09-09T15:44:00;23.40;99.30
59309;DHT22;48433;53.016;-2.260;2022-09-09T15:46:33;22.90;99.90
59309;DHT22;48433;53.016;-2.260;2022-09-09T15:49:20;22.50;99.90
59309;DHT22;48433;53.016;-2.260;2022-09-09T15:51:59;21.90;99.90
59309;DHT22;48433;53.016;-2.260;2022-09-09T15:54:32;21.60;99.90
59309;DHT22;48433;53.016;-2.260;2022-09-09T15:57:03;21.40;99.90
59309;DHT22;48433;53.016;-2.260;2022-09-09T15:59:31;21.40;99.90
59309;DHT22;48433;53.016;-2.260;2022-09-09T16:02:01;21.80;99.90
59309;DHT22;48433;53.016;-2.260;2022-09-09T16:04:29;22.10;99.90
59309;DHT22;48433;53.016;-2.260;2022-09-09T16:07:02;22.20;99.90
59309;DHT22;48433;53.016;-2.260;2022-09-09T16:09:31;22.10;99.90
59309;DHT22;48433;53.016;-2.260;2022-09-09T16:12:00;21.70;99.90
59309;DHT22;48433;53.016;-2.260;2022-09-09T16:14:29;20.90;99.90
59309;DHT22;48433;53.016;-2.260;2022-09-09T16:17:03;20.10;99.90
59309;DHT22;48433;53.016;-2.260;2022-09-09T16:19:31;19.40;99.90
59309;DHT22;48433;53.016;-2.260;2022-09-09T16:21:59;18.80;99.90
59309;DHT22;48433;53.016;-2.260;2022-09-09T16:24:26;18.20;99.90
59309;DHT22;48433;53.016;-2.260;2022-09-09T16:26:54;17.70;99.90
59309;DHT22;48433;53.016;-2.260;2022-09-09T16:29:22;17.40;99.90
59309;DHT22;48433;53.016;-2.260;2022-09-09T16:31:51;17.10;99.90
59309;DHT22;48433;53.016;-2.260;2022-09-09T16:34:19;16.80;99.90
59309;DHT22;48433;53.016;-2.260;2022-09-09T16:36:48;16.70;99.90
59309;DHT22;48433;53.016;-2.260;2022-09-09T16:39:18;16.50;99.90
59309;DHT22;48433;53.016;-2.260;2022-09-09T16:41:47;16.50;99.90
59309;DHT22;48433;53.016;-2.260;2022-09-09T16:44:16;16.40;99.90
59309;DHT22;48433;53.016;-2.260;2022-09-09T16:46:46;16.30;99.90
59309;DHT22;48433;53.016;-2.260;2022-09-09T16:49:16;16.30;99.90
59309;DHT22;48433;53.016;-2.260;2022-09-09T16:51:46;16.20;99.90
59309;DHT22;48433;53.016;-2.260;2022-09-09T16:54:17;16.20;99.90
59309;DHT22;48433;53.016;-2.260;2022-09-09T16:56:47;16.20;99.90
59309;DHT22;48433;53.016;-2.260;2022-09-09T16:59:17;16.20;99.90
59309;DHT22;48433;53.016;-2.260;2022-09-09T17:01:47;16.30;99.90
59309;DHT22;48433;53.016;-2.260;2022-09-09T17:04:20;16.30;99.90
59309;DHT22;48433;53.016;-2.260;2022-09-09T17:06:49;16.40;99.90
59309;DHT22;48433;53.016;-2.260;2022-09-09T17:09:18;16.50;99.90
59309;DHT22;48433;53.016;-2.260;2022-09-09T17:11:46;16.60;99.90
59309;DHT22;48433;53.016;-2.260;2022-09-09T17:14:17;16.70;99.90
59309;DHT22;48433;53.016;-2.260;2022-09-09T17:16:45;16.80;99.90
59309;DHT22;48433;53.016;-2.260;2022-09-09T17:19:14;16.90;99.90
59309;DHT22;48433;53.016;-2.260;2022-09-09T17:21:42;16.90;99.90
59309;DHT22;48433;53.016;-2.260;2022-09-09T17:24:30;17.00;99.90
59309;DHT22;48433;53.016;-2.260;2022-09-09T17:26:58;17.00;99.90
59309;DHT22;48433;53.016;-2.260;2022-09-09T17:29:26;17.00;99.90
59309;DHT22;48433;53.016;-2.260;2022-09-09T17:31:53;17.10;99.90
59309;DHT22;48433;53.016;-2.260;2022-09-09T17:34:22;17.20;99.90
59309;DHT22;48433;53.016;-2.260;2022-09-09T17:36:50;17.30;99.90
59309;DHT22;48433;53.016;-2.260;2022-09-09T17:39:19;17.40;99.90
59309;DHT22;48433;53.016;-2.260;2022-09-09T17:41:47;17.40;99.90
59309;DHT22;48433;53.016;-2.260;2022-09-09T17:44:14;17.40;99.90
59309;DHT22;48433;53.016;-2.260;2022-09-09T17:46:43;17.30;99.90
59309;DHT22;48433;53.016;-2.260;2022-09-09T17:49:15;17.30;99.90
59309;DHT22;48433;53.016;-2.260;2022-09-09T17:51:44;17.30;99.90
59309;DHT22;48433;53.016;-2.260;2022-09-09T17:54:15;17.20;99.90
59309;DHT22;48433;53.016;-2.260;2022-09-09T17:56:44;17.20;99.90
59309;DHT22;48433;53.016;-2.260;2022-09-09T17:59:13;17.10;99.90